createdAt,value
2022-10-19T00:00:02.379Z,14.5
2022-10-19T00:01:02.070Z,14.3
2022-10-19T00:02:02.157Z,14.5
2022-10-19T00:03:02.115Z,14.4
2022-10-19T00:04:03.474Z,14.5
2022-10-19T00:05:01.451Z,14.3
2022-10-19T00:06:01.446Z,14.4
2022-10-19T00:07:02.458Z,14.5
2022-10-19T00:08:02.257Z,14.5
2022-10-19T00:09:02.266Z,14.5
2022-10-19T00:10:02.113Z,14.5
2022-10-19T00:11:02.138Z,14.5
2022-10-19T00:12:01.967Z,14.4
2022-10-19T00:13:01.911Z,14.2
2022-10-19T00:14:01.965Z,14.3
2022-10-19T00:15:01.699Z,14.2
2022-10-19T00:16:01.622Z,14.4
2022-10-19T00:17:01.615Z,14.4
2022-10-19T00:18:01.441Z,14.4
2022-10-19T00:19:01.515Z,14.3
2022-10-19T00:20:01.356Z,14.4
2022-10-19T00:21:01.499Z,14.4
2022-10-19T00:22:02.412Z,14.5
2022-10-19T00:23:02.247Z,14.5
2022-10-19T00:24:02.333Z,14.5
2022-10-19T00:25:02.194Z,14.4
2022-10-19T00:26:02.274Z,14.5
2022-10-19T00:27:02.143Z,14.4
2022-10-19T00:28:02.244Z,14.5
2022-10-19T00:29:02.142Z,14.5
2022-10-19T00:30:02.219Z,14.5
2022-10-19T00:31:01.713Z,14.5
2022-10-19T00:32:01.863Z,14.4
2022-10-19T00:33:01.568Z,14.4
2022-10-19T00:34:01.660Z,14.5
2022-10-19T00:35:01.466Z,14.4
2022-10-19T00:36:01.562Z,14.5
2022-10-19T00:37:01.355Z,14.5
2022-10-19T00:38:02.386Z,14.5
2022-10-19T00:39:02.242Z,14.5
2022-10-19T00:40:02.342Z,14.5
2022-10-19T00:41:02.120Z,14.5
2022-10-19T00:42:02.226Z,14.5
2022-10-19T00:43:01.965Z,14.5
2022-10-19T00:44:02.123Z,14.5
2022-10-19T00:45:01.860Z,14.5
2022-10-19T00:46:01.614Z,14.5
2022-10-19T00:47:01.646Z,14.5
2022-10-19T00:48:01.463Z,14.5
2022-10-19T00:49:01.742Z,14.5
2022-10-19T00:50:02.035Z,14.5
2022-10-19T00:51:01.971Z,14.6
2022-10-19T00:52:02.070Z,14.6
2022-10-19T00:53:01.863Z,14.4
2022-10-19T00:54:01.762Z,14.5
2022-10-19T00:55:01.712Z,14.4
2022-10-19T00:56:01.622Z,14.4
2022-10-19T00:57:01.703Z,14.4
2022-10-19T00:58:01.481Z,14.5
2022-10-19T00:59:01.403Z,14.5
2022-10-19T01:00:01.387Z,14.4
2022-10-19T01:01:02.307Z,14.4
2022-10-19T01:02:02.351Z,14.5
2022-10-19T01:03:02.239Z,14.3
2022-10-19T01:04:02.301Z,14.4
2022-10-19T01:05:02.101Z,14.3
2022-10-19T01:06:02.171Z,14.2
2022-10-19T01:07:02.021Z,14.2
2022-10-19T01:08:01.965Z,14.2
2022-10-19T01:09:02.053Z,14.4
2022-10-19T01:10:01.854Z,14.4
2022-10-19T01:11:01.754Z,14.5
2022-10-19T01:12:01.708Z,14.5
2022-10-19T01:13:01.622Z,14.6
2022-10-19T01:14:01.704Z,14.5
2022-10-19T01:15:01.532Z,14.6
2022-10-19T01:16:02.256Z,14.4
2022-10-19T01:17:02.362Z,14.5
2022-10-19T01:18:02.167Z,14.6
2022-10-19T01:19:02.202Z,14.4
2022-10-19T01:20:02.029Z,14.3
2022-10-19T01:21:02.123Z,14.3
2022-10-19T01:22:01.932Z,14.3
2022-10-19T01:23:01.872Z,14.2
2022-10-19T01:24:01.930Z,14.2
2022-10-19T01:25:01.654Z,14.2
2022-10-19T01:26:01.730Z,14.2
2022-10-19T01:27:01.515Z,14.3
2022-10-19T01:28:01.597Z,14.3
2022-10-19T01:29:01.424Z,14.3
2022-10-19T01:30:01.521Z,14.4
2022-10-19T01:31:02.283Z,14.4
2022-10-19T01:32:02.110Z,14.4
2022-10-19T01:33:02.200Z,14.5
2022-10-19T01:34:02.016Z,14.5
2022-10-19T01:35:02.037Z,14.4
2022-10-19T01:36:01.875Z,14.4
2022-10-19T01:37:01.789Z,14.3
2022-10-19T01:38:01.811Z,14.4
2022-10-19T01:39:01.655Z,14.5
2022-10-19T01:40:01.644Z,14.5
2022-10-19T01:41:01.470Z,14.5
2022-10-19T01:42:01.518Z,14.5
2022-10-19T01:43:01.339Z,14.5
2022-10-19T01:44:02.336Z,14.4
2022-10-19T01:45:02.240Z,14.3
2022-10-19T01:46:01.912Z,14.4
2022-10-19T01:47:01.995Z,14.2
2022-10-19T01:48:01.790Z,14.3
2022-10-19T01:49:01.731Z,14.3
2022-10-19T01:50:01.754Z,14.3
2022-10-19T01:51:01.605Z,14.2
2022-10-19T01:52:01.668Z,14.3
2022-10-19T01:53:01.453Z,14.2
2022-10-19T01:54:01.498Z,14.2
2022-10-19T01:55:02.382Z,14.2
2022-10-19T01:56:02.209Z,14
2022-10-19T01:57:02.275Z,14.1
2022-10-19T01:58:02.128Z,14.2
2022-10-19T01:59:02.224Z,14.1
2022-10-19T02:00:02.015Z,14.1
2022-10-19T02:01:02.032Z,14.2
2022-10-19T02:02:02.266Z,14.1
2022-10-19T02:03:02.122Z,14.1
2022-10-19T02:04:02.324Z,14.1
2022-10-19T02:05:02.134Z,14.2
2022-10-19T02:06:02.162Z,14.2
2022-10-19T02:07:01.998Z,14.3
2022-10-19T02:08:01.944Z,14.2
2022-10-19T02:09:01.989Z,14.2
2022-10-19T02:10:01.793Z,14.2
2022-10-19T02:11:01.951Z,14.2
2022-10-19T02:12:01.783Z,14.2
2022-10-19T02:13:01.635Z,14.2
2022-10-19T02:14:01.901Z,14.1
2022-10-19T02:15:01.952Z,14.1
2022-10-19T02:16:01.557Z,14.1
2022-10-19T02:17:01.658Z,14.1
2022-10-19T02:18:01.436Z,14.1
2022-10-19T02:19:01.556Z,14.1
2022-10-19T02:20:01.300Z,14.1
2022-10-19T02:21:02.331Z,14.2
2022-10-19T02:22:02.199Z,14.1
2022-10-19T02:23:02.255Z,14.1
2022-10-19T02:24:02.051Z,14.1
2022-10-19T02:25:02.047Z,14
2022-10-19T02:26:01.939Z,14.1
2022-10-19T02:27:01.825Z,14.1
2022-10-19T02:28:01.940Z,14.1
2022-10-19T02:29:01.810Z,14.1
2022-10-19T02:30:01.756Z,14
2022-10-19T02:31:01.609Z,13.9
2022-10-19T02:32:01.615Z,14
2022-10-19T02:33:01.486Z,13.9
2022-10-19T02:34:01.531Z,14
2022-10-19T02:35:01.292Z,14
2022-10-19T02:36:02.319Z,13.9
2022-10-19T02:37:02.164Z,13.9
2022-10-19T02:38:02.195Z,14
2022-10-19T02:39:02.030Z,13.9
2022-10-19T02:40:02.063Z,14
2022-10-19T02:41:01.916Z,14
2022-10-19T02:42:01.835Z,14
2022-10-19T02:43:01.895Z,14
2022-10-19T02:44:01.742Z,14
2022-10-19T02:45:01.694Z,13.9
2022-10-19T02:46:01.522Z,14
2022-10-19T02:47:01.559Z,14
2022-10-19T02:48:01.354Z,13.9
2022-10-19T02:49:02.390Z,14
2022-10-19T02:50:02.268Z,14
2022-10-19T02:51:02.246Z,14
2022-10-19T02:52:02.112Z,13.9
2022-10-19T02:53:02.177Z,13.9
2022-10-19T02:54:04.079Z,13.9
2022-10-19T02:55:02.208Z,13.9
2022-10-19T02:56:02.306Z,13.9
2022-10-19T02:57:02.093Z,13.9
2022-10-19T02:58:02.126Z,14
2022-10-19T02:59:01.962Z,14
2022-10-19T03:00:01.910Z,14
2022-10-19T03:01:01.661Z,13.9
2022-10-19T03:02:01.692Z,13.9
2022-10-19T03:03:01.430Z,14
2022-10-19T03:04:01.520Z,13.9
2022-10-19T03:05:01.335Z,13.9
2022-10-19T03:06:02.466Z,13.9
2022-10-19T03:07:02.232Z,13.9
2022-10-19T03:08:02.232Z,13.9
2022-10-19T03:09:02.070Z,13.8
2022-10-19T03:10:02.150Z,13.8
2022-10-19T03:11:01.879Z,13.9
2022-10-19T03:12:01.962Z,13.9
2022-10-19T03:13:01.881Z,13.9
2022-10-19T03:14:01.745Z,13.9
2022-10-19T03:15:01.868Z,14
2022-10-19T03:16:01.369Z,13.9
2022-10-19T03:17:01.427Z,13.8
2022-10-19T03:18:02.481Z,13.8
2022-10-19T03:19:02.243Z,13.8
2022-10-19T03:20:02.351Z,13.7
2022-10-19T03:21:02.155Z,13.7
2022-10-19T03:22:02.247Z,13.6
2022-10-19T03:23:02.038Z,13.7
2022-10-19T03:24:02.081Z,13.7
2022-10-19T03:25:01.930Z,13.6
2022-10-19T03:26:01.824Z,13.5
2022-10-19T03:27:01.866Z,13.5
2022-10-19T03:28:01.720Z,13.4
2022-10-19T03:29:01.838Z,13.5
2022-10-19T03:30:01.858Z,13.5
2022-10-19T03:31:01.507Z,13.4
2022-10-19T03:32:01.635Z,13.3
2022-10-19T03:33:01.426Z,13.4
2022-10-19T03:34:01.432Z,13.4
2022-10-19T03:35:01.397Z,13.4
2022-10-19T03:36:02.409Z,13.3
2022-10-19T03:37:02.207Z,13.3
2022-10-19T03:38:02.270Z,13.3
2022-10-19T03:39:02.094Z,13.3
2022-10-19T03:40:02.185Z,13.3
2022-10-19T03:41:01.942Z,13.3
2022-10-19T03:42:02.025Z,13.3
2022-10-19T03:43:01.812Z,13.3
2022-10-19T03:44:01.777Z,13.2
2022-10-19T03:45:01.841Z,13.1
2022-10-19T03:46:01.378Z,13.2
2022-10-19T03:47:01.438Z,13.2
2022-10-19T03:48:02.381Z,13.1
2022-10-19T03:49:02.232Z,13.1
2022-10-19T03:50:02.339Z,13.1
2022-10-19T03:51:02.165Z,13.1
2022-10-19T03:52:02.236Z,13
2022-10-19T03:54:01.881Z,12.9
2022-10-19T03:55:01.901Z,13
2022-10-19T03:56:01.701Z,12.9
2022-10-19T03:57:01.850Z,12.9
2022-10-19T03:58:01.550Z,12.9
2022-10-19T03:59:01.708Z,12.9
2022-10-19T04:00:01.459Z,12.9
2022-10-19T04:01:01.592Z,12.9
2022-10-19T04:02:01.678Z,12.9
2022-10-19T04:03:01.578Z,12.9
2022-10-19T04:04:01.605Z,12.9
2022-10-19T04:05:01.384Z,12.9
2022-10-19T04:06:01.505Z,12.9
2022-10-19T04:07:01.368Z,12.8
2022-10-19T04:08:01.420Z,12.9
2022-10-19T04:09:02.354Z,12.8
2022-10-19T04:10:02.203Z,12.8
2022-10-19T04:11:02.249Z,12.9
2022-10-19T04:12:02.088Z,12.8
2022-10-19T04:13:02.099Z,12.8
2022-10-19T04:14:01.904Z,12.8
2022-10-19T04:15:02.209Z,12.8
2022-10-19T04:16:02.168Z,12.7
2022-10-19T04:17:02.225Z,12.8
2022-10-19T04:18:01.997Z,12.8
2022-10-19T04:19:02.093Z,12.8
2022-10-19T04:20:01.896Z,12.8
2022-10-19T04:21:01.846Z,12.8
2022-10-19T04:22:01.905Z,12.7
2022-10-19T04:23:01.743Z,12.8
2022-10-19T04:24:01.854Z,12.8
2022-10-19T04:25:01.688Z,12.8
2022-10-19T04:26:01.819Z,12.7
2022-10-19T04:27:01.644Z,12.7
2022-10-19T04:28:01.702Z,12.7
2022-10-19T04:29:01.667Z,12.7
2022-10-19T04:30:01.886Z,12.7
2022-10-19T04:31:01.704Z,12.7
2022-10-19T04:32:01.775Z,12.6
2022-10-19T04:33:01.563Z,12.6
2022-10-19T04:34:01.559Z,12.6
2022-10-19T04:35:01.375Z,12.7
2022-10-19T04:36:01.431Z,12.7
2022-10-19T04:37:02.382Z,12.7
2022-10-19T04:38:02.233Z,12.6
2022-10-19T04:39:02.298Z,12.6
2022-10-19T04:40:02.201Z,12.7
2022-10-19T04:41:02.045Z,12.7
2022-10-19T04:42:02.021Z,12.5
2022-10-19T04:43:01.965Z,12.6
2022-10-19T04:44:01.863Z,12.6
2022-10-19T04:45:01.803Z,12.6
2022-10-19T04:46:01.637Z,12.6
2022-10-19T04:47:01.601Z,12.7
2022-10-19T04:48:01.542Z,12.7
2022-10-19T04:49:01.447Z,12.7
2022-10-19T04:50:01.333Z,12.7
2022-10-19T04:51:02.289Z,12.7
2022-10-19T04:52:02.254Z,12.6
2022-10-19T04:53:02.182Z,12.6
2022-10-19T04:54:02.133Z,12.6
2022-10-19T04:55:02.052Z,12.6
2022-10-19T04:56:02.017Z,12.6
2022-10-19T04:57:01.928Z,12.5
2022-10-19T04:58:01.877Z,12.5
2022-10-19T04:59:01.766Z,12.5
2022-10-19T05:00:01.823Z,12.6
2022-10-19T05:01:01.489Z,12.6
2022-10-19T05:02:01.375Z,12.5
2022-10-19T05:03:01.331Z,12.5
2022-10-19T05:04:02.276Z,12.5
2022-10-19T05:05:02.233Z,12.4
2022-10-19T05:06:02.202Z,12.3
2022-10-19T05:07:02.133Z,12.3
2022-10-19T05:08:02.084Z,12.4
2022-10-19T05:09:02.030Z,12.4
2022-10-19T05:10:01.943Z,12.3
2022-10-19T05:11:01.878Z,12.3
2022-10-19T05:12:01.820Z,12.2
2022-10-19T05:13:01.854Z,12.4
2022-10-19T05:14:01.717Z,12.3
2022-10-19T05:15:01.610Z,12.3
2022-10-19T05:16:02.240Z,12.2
2022-10-19T05:17:02.204Z,12.3
2022-10-19T05:18:02.138Z,12.2
2022-10-19T05:19:02.054Z,12.3
2022-10-19T05:20:01.995Z,12.2
2022-10-19T05:21:01.888Z,12.2
2022-10-19T05:22:01.833Z,12.3
2022-10-19T05:23:04.632Z,12.1
2022-10-19T05:24:02.066Z,12.2
2022-10-19T05:25:02.016Z,12.2
2022-10-19T05:26:01.974Z,12.2
2022-10-19T05:27:01.921Z,12.2
2022-10-19T05:28:01.827Z,12.2
2022-10-19T05:29:01.918Z,12.4
2022-10-19T05:30:02.083Z,12.4
2022-10-19T05:31:01.894Z,12.3
2022-10-19T05:32:01.796Z,12.2
2022-10-19T05:33:01.832Z,12.4
2022-10-19T05:34:01.873Z,12.3
2022-10-19T05:35:01.781Z,12.4
2022-10-19T05:36:01.736Z,12.3
2022-10-19T05:37:01.700Z,12.4
2022-10-19T05:38:01.695Z,12.4
2022-10-19T05:39:01.595Z,12.3
2022-10-19T05:40:01.500Z,12.4
2022-10-19T05:41:01.408Z,12.4
2022-10-19T05:42:01.362Z,12.3
2022-10-19T05:43:02.414Z,12.3
2022-10-19T05:44:02.289Z,12.3
2022-10-19T05:45:01.403Z,12.3
2022-10-19T05:46:02.225Z,12.3
2022-10-19T05:47:02.178Z,12.3
2022-10-19T05:48:02.131Z,12.4
2022-10-19T05:49:02.090Z,12.3
2022-10-19T05:50:02.032Z,12.3
2022-10-19T05:51:01.995Z,12.3
2022-10-19T05:52:01.928Z,12.3
2022-10-19T05:53:01.482Z,12.2
2022-10-19T05:54:01.414Z,12.2
2022-10-19T05:55:01.370Z,12.4
2022-10-19T05:56:01.322Z,12.2
2022-10-19T05:57:02.252Z,12.3
2022-10-19T05:58:02.167Z,12.3
2022-10-19T05:59:02.135Z,12.3
2022-10-19T06:00:02.049Z,12.3
2022-10-19T06:01:01.656Z,12.3
2022-10-19T06:02:01.581Z,12.3
2022-10-19T06:03:01.445Z,12.2
2022-10-19T06:04:01.378Z,12.3
2022-10-19T06:05:01.284Z,12.3
2022-10-19T06:06:02.258Z,12.3
2022-10-19T06:07:02.218Z,12.3
2022-10-19T06:08:02.144Z,12.3
2022-10-19T06:09:02.117Z,12.4
2022-10-19T06:10:02.074Z,12.4
2022-10-19T06:11:02.006Z,12.3
2022-10-19T06:12:01.937Z,12.4
2022-10-19T06:13:01.866Z,12.4
2022-10-19T06:14:01.803Z,12.5
2022-10-19T06:15:01.717Z,12.4
2022-10-19T06:16:01.681Z,12.4
2022-10-19T06:17:01.633Z,12.5
2022-10-19T06:18:01.596Z,12.6
2022-10-19T06:19:01.504Z,12.6
2022-10-19T06:20:01.408Z,12.5
2022-10-19T06:21:01.342Z,12.6
2022-10-19T06:22:01.298Z,12.5
2022-10-19T06:23:02.255Z,12.5
2022-10-19T06:24:02.267Z,12.5
2022-10-19T06:25:02.218Z,12.5
2022-10-19T06:26:02.137Z,12.6
2022-10-19T06:27:02.081Z,12.6
2022-10-19T06:28:02.038Z,12.7
2022-10-19T06:29:01.997Z,12.6
2022-10-19T06:30:01.971Z,12.6
2022-10-19T06:31:02.388Z,12.6
2022-10-19T06:32:01.782Z,12.6
2022-10-19T06:34:01.721Z,12.5
2022-10-19T06:35:01.715Z,12.5
2022-10-19T06:36:01.745Z,12.4
2022-10-19T06:37:01.780Z,12.5
2022-10-19T06:38:01.714Z,12.6
2022-10-19T06:39:01.804Z,12.5
2022-10-19T06:40:06.149Z,12.6
2022-10-19T06:41:02.021Z,12.6
2022-10-19T06:42:01.959Z,12.4
2022-10-19T06:43:01.851Z,12.6
2022-10-19T06:44:01.736Z,12.6
2022-10-19T06:45:01.697Z,12.5
2022-10-19T06:46:01.622Z,12.6
2022-10-19T06:47:01.584Z,12.6
2022-10-19T06:48:03.491Z,12.5
2022-10-19T06:49:01.429Z,12.6
2022-10-19T06:50:01.362Z,12.6
2022-10-19T06:51:02.257Z,12.6
2022-10-19T06:52:02.203Z,12.7
2022-10-19T06:53:02.175Z,12.7
2022-10-19T06:54:02.113Z,12.7
2022-10-19T06:55:02.048Z,12.7
2022-10-19T06:56:01.981Z,12.6
2022-10-19T06:57:01.886Z,12.5
2022-10-19T06:58:01.780Z,12.6
2022-10-19T06:59:01.680Z,12.6
2022-10-19T07:00:01.636Z,12.6
2022-10-19T07:01:01.453Z,12.5
2022-10-19T07:02:01.359Z,12.5
2022-10-19T07:03:02.303Z,12.6
2022-10-19T07:04:02.234Z,12.5
2022-10-19T07:05:04.535Z,12.5
2022-10-19T07:06:01.919Z,12.6
2022-10-19T07:07:01.862Z,12.7
2022-10-19T07:08:01.856Z,12.6
2022-10-19T07:09:01.804Z,12.7
2022-10-19T07:10:01.747Z,12.7
2022-10-19T07:11:01.723Z,12.8
2022-10-19T07:12:01.705Z,12.8
2022-10-19T07:13:01.659Z,12.8
2022-10-19T07:14:01.556Z,12.5
2022-10-19T07:15:01.554Z,12.7
2022-10-19T07:16:01.584Z,12.8
2022-10-19T07:17:01.517Z,12.8
2022-10-19T07:18:01.422Z,12.8
2022-10-19T07:19:01.360Z,12.8
2022-10-19T07:20:02.340Z,12.6
2022-10-19T07:21:02.255Z,12.7
2022-10-19T07:22:02.190Z,12.9
2022-10-19T07:23:02.132Z,12.9
2022-10-19T07:24:02.079Z,12.8
2022-10-19T07:25:02.013Z,13
2022-10-19T07:26:01.954Z,12.9
2022-10-19T07:27:01.915Z,13
2022-10-19T07:28:01.816Z,12.9
2022-10-19T07:29:01.761Z,13.1
2022-10-19T07:30:01.726Z,13.1
2022-10-19T07:31:01.530Z,13
2022-10-19T07:32:01.465Z,13
2022-10-19T07:33:01.418Z,13
2022-10-19T07:34:01.318Z,12.9
2022-10-19T07:35:02.312Z,13.1
2022-10-19T07:36:02.213Z,12.9
2022-10-19T07:37:02.178Z,13
2022-10-19T07:38:02.113Z,13.1
2022-10-19T07:39:02.065Z,13.2
2022-10-19T07:40:01.995Z,13.1
2022-10-19T07:41:01.961Z,13.3
2022-10-19T07:42:01.910Z,13.3
2022-10-19T07:43:01.799Z,13.1
2022-10-19T07:44:01.723Z,13.3
2022-10-19T07:45:01.628Z,13.2
2022-10-19T07:46:01.458Z,13
2022-10-19T07:47:01.470Z,13
2022-10-19T07:48:01.433Z,13
2022-10-19T07:49:01.394Z,13.1
2022-10-19T07:50:02.287Z,13.2
2022-10-19T07:51:02.244Z,13.1
2022-10-19T07:52:02.157Z,13.1
2022-10-19T07:53:02.104Z,13.1
2022-10-19T07:54:02.018Z,13.1
2022-10-19T07:55:01.967Z,13.1
2022-10-19T07:56:01.993Z,13.1
2022-10-19T07:57:01.888Z,13.1
2022-10-19T07:58:01.798Z,13.2
2022-10-19T07:59:01.763Z,13.3
2022-10-19T08:00:01.729Z,13.2
2022-10-19T08:01:01.885Z,13.1
2022-10-19T08:02:01.805Z,13.1
2022-10-19T08:03:31.500Z,13.1
2022-10-19T08:04:48.948Z,13.1
2022-10-19T08:05:05.184Z,13.1
2022-10-19T08:06:01.825Z,13
2022-10-19T08:07:01.776Z,13
2022-10-19T08:08:01.718Z,13
2022-10-19T08:09:01.686Z,12.9
2022-10-19T08:10:01.563Z,12.9
2022-10-19T08:11:01.436Z,12.9
2022-10-19T08:12:01.372Z,13
2022-10-19T08:13:01.331Z,13
2022-10-19T08:14:02.281Z,12.9
2022-10-19T08:15:02.190Z,12.9
2022-10-19T08:16:01.814Z,12.9
2022-10-19T08:17:01.718Z,13
2022-10-19T08:18:01.673Z,12.9
2022-10-19T08:19:01.611Z,12.9
2022-10-19T08:20:01.583Z,12.9
2022-10-19T08:21:01.478Z,12.9
2022-10-19T08:22:01.425Z,12.8
2022-10-19T08:23:01.324Z,12.7
2022-10-19T08:24:02.278Z,12.8
2022-10-19T08:25:02.252Z,12.8
2022-10-19T08:26:02.093Z,13.2
2022-10-19T08:27:02.060Z,13.5
2022-10-19T08:28:01.955Z,13.8
2022-10-19T08:29:01.874Z,13.9
2022-10-19T08:30:01.784Z,13.7
2022-10-19T08:31:01.776Z,13.6
2022-10-19T08:32:01.805Z,13.6
2022-10-19T08:33:01.736Z,13.6
2022-10-19T08:34:01.764Z,13.5
2022-10-19T08:35:01.650Z,13.6
2022-10-19T08:36:01.616Z,13.5
2022-10-19T08:37:04.065Z,13.6
2022-10-19T08:38:02.933Z,13.3
2022-10-19T08:39:01.747Z,13.3
2022-10-19T08:40:01.730Z,13.3
2022-10-19T08:41:01.611Z,13.2
2022-10-19T08:42:01.665Z,13.2
2022-10-19T08:43:01.618Z,13.2
2022-10-19T08:44:03.123Z,13.2
2022-10-19T08:45:01.868Z,13.2
2022-10-19T08:46:01.546Z,13.1
2022-10-19T08:47:02.557Z,13.2
2022-10-19T08:48:01.492Z,13
2022-10-19T08:49:01.640Z,12.9
2022-10-19T08:50:01.398Z,12.9
2022-10-19T08:51:01.482Z,12.8
2022-10-19T08:52:02.368Z,12.8
2022-10-19T08:53:02.266Z,12.8
2022-10-19T08:54:02.272Z,12.9
2022-10-19T08:55:02.117Z,12.8
2022-10-19T08:56:04.408Z,12.8
2022-10-19T08:57:01.485Z,12.8
2022-10-19T08:58:01.563Z,12.8
2022-10-19T08:59:01.333Z,12.7
2022-10-19T09:00:02.386Z,12.8
2022-10-19T09:01:01.972Z,12.7
2022-10-19T09:02:01.968Z,12.7
2022-10-19T09:03:01.895Z,12.7
2022-10-19T09:04:01.876Z,12.7
2022-10-19T09:05:01.919Z,12.7
2022-10-19T09:06:01.776Z,12.8
2022-10-19T09:07:01.717Z,12.8
2022-10-19T09:08:01.761Z,12.9
2022-10-19T09:09:01.547Z,12.9
2022-10-19T09:10:01.535Z,13
2022-10-19T09:11:01.349Z,13
2022-10-19T09:12:01.477Z,12.8
2022-10-19T09:13:01.328Z,12.9
2022-10-19T09:14:05.572Z,13.1
2022-10-19T09:15:02.253Z,13.1
2022-10-19T09:16:02.228Z,12.8
2022-10-19T09:17:02.283Z,13
2022-10-19T09:18:02.096Z,13.1
2022-10-19T09:19:02.178Z,13.1
2022-10-19T09:20:01.928Z,13.2
2022-10-19T09:21:01.946Z,13.3
2022-10-19T09:22:01.851Z,13.2
2022-10-19T09:23:01.753Z,13.2
2022-10-19T09:24:01.816Z,13.4
2022-10-19T09:25:01.611Z,13.3
2022-10-19T09:26:01.633Z,13.2
2022-10-19T09:27:01.502Z,13.1
2022-10-19T09:29:01.342Z,13.2
2022-10-19T09:30:02.369Z,13.1
2022-10-19T09:31:02.209Z,13.1
2022-10-19T09:32:02.304Z,13.1
2022-10-19T09:33:02.149Z,13.2
2022-10-19T09:34:02.259Z,13.2
2022-10-19T09:35:02.033Z,13.3
2022-10-19T09:36:02.086Z,13.3
2022-10-19T09:37:02.017Z,13.3
2022-10-19T09:38:02.055Z,13.5
2022-10-19T09:39:02.143Z,13.5
2022-10-19T09:40:01.936Z,14.2
2022-10-19T09:41:01.903Z,14.3
2022-10-19T09:42:01.942Z,13.3
2022-10-19T09:43:01.851Z,13.8
2022-10-19T09:44:01.769Z,14.5
2022-10-19T09:45:01.915Z,14
2022-10-19T09:46:01.364Z,13.7
2022-10-19T09:47:02.403Z,13.8
2022-10-19T09:48:07.046Z,13.4
2022-10-19T09:49:01.862Z,13.9
2022-10-19T09:50:01.884Z,14.4
2022-10-19T09:51:01.749Z,13.8
2022-10-19T09:52:01.796Z,13.4
2022-10-19T09:53:01.583Z,13.5
2022-10-19T09:54:01.695Z,13.5
2022-10-19T09:55:01.438Z,13.9
2022-10-19T09:56:01.471Z,13.8
2022-10-19T09:57:02.450Z,13.8
2022-10-19T09:58:02.264Z,13.7
2022-10-19T09:59:02.332Z,14.3
2022-10-19T10:00:02.124Z,13.9
2022-10-19T10:01:01.935Z,13.5
2022-10-19T10:03:01.623Z,13.7
2022-10-19T10:04:01.583Z,13.9
2022-10-19T10:05:01.433Z,13.5
2022-10-19T10:06:01.491Z,14.4
2022-10-19T10:07:01.350Z,13.8
2022-10-19T10:08:02.398Z,13.6
2022-10-19T10:09:02.370Z,13.8
2022-10-19T10:10:01.499Z,13.6
2022-10-19T10:11:01.339Z,13.4
2022-10-19T10:12:02.457Z,13.6
2022-10-19T10:13:02.222Z,14
2022-10-19T10:14:03.999Z,13.8
2022-10-19T10:15:01.617Z,14.4
2022-10-19T10:16:01.466Z,14.6
2022-10-19T10:17:01.624Z,13.9
2022-10-19T10:18:01.346Z,13.9
2022-10-19T10:19:01.420Z,13.7
2022-10-19T10:20:02.433Z,14.8
2022-10-19T10:21:03.127Z,14.7
2022-10-19T10:22:01.826Z,13.8
2022-10-19T10:23:01.878Z,13.8
2022-10-19T10:24:01.726Z,13.5
2022-10-19T10:25:01.667Z,13
2022-10-19T10:26:01.564Z,13
2022-10-19T10:27:01.643Z,13
2022-10-19T10:28:01.430Z,12.9
2022-10-19T10:29:01.746Z,13.4
2022-10-19T10:30:01.519Z,13.7
2022-10-19T10:31:01.601Z,14.4
2022-10-19T10:32:01.641Z,14.3
2022-10-19T10:33:04.753Z,14.1
2022-10-19T10:34:06.284Z,13.6
2022-10-19T10:35:01.963Z,14.1
2022-10-19T10:36:01.864Z,14.6
2022-10-19T10:37:01.702Z,14.7
2022-10-19T10:38:01.766Z,14.4
2022-10-19T10:40:03.452Z,13.9
2022-10-19T10:41:01.704Z,13.7
2022-10-19T10:42:01.762Z,13.9
2022-10-19T10:43:01.548Z,13.8
2022-10-19T10:44:02.390Z,13.9
2022-10-19T10:45:01.728Z,13.6
2022-10-19T10:46:01.602Z,13.9
2022-10-19T10:47:01.666Z,13.8
2022-10-19T10:48:01.450Z,13.5
2022-10-19T10:49:01.432Z,13.8
2022-10-19T10:50:02.383Z,14.2
2022-10-19T10:51:02.221Z,14
2022-10-19T10:52:02.274Z,14.2
2022-10-19T10:53:02.208Z,14.7
2022-10-19T10:54:02.219Z,14.4
2022-10-19T10:55:02.173Z,13.9
2022-10-19T10:56:02.274Z,14.1
2022-10-19T10:57:04.357Z,13.8
2022-10-19T10:58:01.826Z,13.7
2022-10-19T10:59:02.011Z,13.7
2022-10-19T11:00:01.798Z,13.8
2022-10-19T11:01:05.288Z,13.4
2022-10-19T11:02:01.695Z,13.9
2022-10-19T11:03:01.705Z,13.5
2022-10-19T11:04:01.515Z,13.3
2022-10-19T11:05:01.549Z,13.7
2022-10-19T11:06:01.365Z,13.4
2022-10-19T11:07:01.454Z,13.4
2022-10-19T11:08:02.442Z,13.5
2022-10-19T11:09:02.265Z,13.4
2022-10-19T11:10:02.434Z,13.3
2022-10-19T11:11:02.235Z,13.8
2022-10-19T11:12:02.349Z,13.9
2022-10-19T11:13:02.128Z,13.8
2022-10-19T11:14:02.171Z,13.9
2022-10-19T11:15:02.035Z,13.5
2022-10-19T11:16:01.988Z,13.5
2022-10-19T11:17:02.088Z,13.5
2022-10-19T11:18:02.104Z,13.6
2022-10-19T11:19:02.088Z,14.3
2022-10-19T11:20:02.201Z,13.9
2022-10-19T11:21:02.047Z,14.6
2022-10-19T11:22:02.231Z,14.7
2022-10-19T11:23:01.968Z,14.9
2022-10-19T11:24:02.032Z,14.8
2022-10-19T11:25:01.813Z,14.4
2022-10-19T11:26:01.808Z,14.4
2022-10-19T11:27:01.926Z,14.4
2022-10-19T11:28:01.810Z,14.7
2022-10-19T11:29:01.806Z,14.7
2022-10-19T11:30:01.774Z,14.2
2022-10-19T11:31:01.427Z,14
2022-10-19T11:32:01.504Z,13.8
2022-10-19T11:33:02.395Z,14.1
2022-10-19T11:34:02.610Z,14.2
2022-10-19T11:35:01.555Z,14.1
2022-10-19T11:36:01.634Z,14.1
2022-10-19T11:37:01.409Z,14.1
2022-10-19T11:38:18.644Z,14
2022-10-19T11:39:01.613Z,14
2022-10-19T11:40:01.590Z,14.2
2022-10-19T11:41:17.660Z,14.1
2022-10-19T11:42:01.892Z,14
2022-10-19T11:43:01.885Z,14.1
2022-10-19T11:44:01.732Z,14.1
2022-10-19T11:45:01.779Z,14.1
2022-10-19T11:46:01.305Z,15.2
2022-10-19T11:47:02.431Z,14.2
2022-10-19T11:48:01.376Z,14.5
2022-10-19T11:49:01.426Z,14.5
2022-10-19T11:50:02.491Z,14.5
2022-10-19T11:51:16.711Z,13.8
2022-10-19T11:52:01.672Z,14.1
2022-10-19T11:53:01.687Z,13.8
2022-10-19T11:54:01.499Z,14.2
2022-10-19T11:55:01.540Z,14
2022-10-19T11:56:01.343Z,14
2022-10-19T11:57:04.904Z,14
2022-10-19T11:58:02.279Z,13.7
2022-10-19T11:59:02.375Z,13.8
2022-10-19T12:00:08.064Z,13.5
2022-10-19T12:01:01.819Z,13.9
2022-10-19T12:02:01.968Z,13.8
2022-10-19T12:03:03.795Z,14.2
2022-10-19T12:04:01.853Z,13.9
2022-10-19T12:05:01.852Z,14
2022-10-19T12:06:01.718Z,14.4
2022-10-19T12:07:01.751Z,14.8
2022-10-19T12:08:01.584Z,13.9
2022-10-19T12:09:01.719Z,14.2
2022-10-19T12:10:01.683Z,14.1
2022-10-19T12:11:01.814Z,14.2
2022-10-19T12:12:01.589Z,14.3
2022-10-19T12:13:01.700Z,14.6
2022-10-19T12:14:01.414Z,14.5
2022-10-19T12:15:01.502Z,14.2
2022-10-19T12:16:02.299Z,14.5
2022-10-19T12:17:02.357Z,14.4
2022-10-19T12:18:01.654Z,14.4
2022-10-19T12:19:01.707Z,14
2022-10-19T12:20:01.486Z,13.9
2022-10-19T12:21:01.529Z,13.9
2022-10-19T12:22:01.359Z,14.1
2022-10-19T12:23:01.473Z,13.7
2022-10-19T12:24:02.420Z,13.8
2022-10-19T12:25:02.295Z,14.1
2022-10-19T12:26:02.384Z,14.2
2022-10-19T12:27:02.256Z,14.4
2022-10-19T12:28:02.285Z,14.4
2022-10-19T12:29:02.187Z,14.2
2022-10-19T12:30:02.373Z,14.2
2022-10-19T12:31:01.982Z,14
2022-10-19T12:32:01.984Z,14.1
2022-10-19T12:33:01.828Z,13.9
2022-10-19T12:34:01.806Z,14
2022-10-19T12:35:01.890Z,14
2022-10-19T12:36:01.693Z,14
2022-10-19T12:37:01.735Z,14.7
2022-10-19T12:38:01.613Z,14.3
2022-10-19T12:39:01.558Z,14.3
2022-10-19T12:40:01.381Z,14.5
2022-10-19T12:41:01.450Z,14.3
2022-10-19T12:42:01.300Z,13.9
2022-10-19T12:43:02.368Z,14
2022-10-19T12:44:02.295Z,13.9
2022-10-19T12:45:02.270Z,14.5
2022-10-19T12:46:01.934Z,14.1
2022-10-19T12:47:02.045Z,14
2022-10-19T12:48:01.802Z,13.6
2022-10-19T12:49:01.861Z,14.1
2022-10-19T12:50:01.932Z,13.8
2022-10-19T12:51:01.719Z,13.7
2022-10-19T12:52:01.762Z,14.1
2022-10-19T12:53:01.608Z,14
2022-10-19T12:54:01.719Z,14
2022-10-19T12:55:01.512Z,13.8
2022-10-19T12:56:01.476Z,13.8
2022-10-19T12:57:01.323Z,13.7
2022-10-19T12:58:02.397Z,13.9
2022-10-19T12:59:02.230Z,14
2022-10-19T13:00:02.407Z,13.7
2022-10-19T13:01:02.237Z,14.4
2022-10-19T13:02:02.284Z,14.3
2022-10-19T13:03:02.132Z,14.7
2022-10-19T13:04:02.220Z,14.7
2022-10-19T13:05:01.992Z,13.8
2022-10-19T13:06:02.096Z,14.6
2022-10-19T13:07:01.903Z,14.3
2022-10-19T13:08:01.841Z,14.1
2022-10-19T13:09:01.907Z,13.9
2022-10-19T13:10:01.879Z,14.3
2022-10-19T13:11:01.800Z,14.2
2022-10-19T13:12:01.785Z,14
2022-10-19T13:13:01.702Z,14.2
2022-10-19T13:14:01.700Z,14.3
2022-10-19T13:15:01.523Z,14.3
2022-10-19T13:16:02.234Z,14.1
2022-10-19T13:17:02.366Z,14.3
2022-10-19T13:18:02.206Z,14.2
2022-10-19T13:19:02.325Z,14.3
2022-10-19T13:20:02.116Z,14.3
2022-10-19T13:21:03.454Z,13.7
2022-10-19T13:22:01.526Z,13.5
2022-10-19T13:23:01.573Z,13.8
2022-10-19T13:24:01.391Z,13.8
2022-10-19T13:25:03.505Z,13.9
2022-10-19T13:26:01.908Z,13.7
2022-10-19T13:27:01.867Z,13.7
2022-10-19T13:28:01.904Z,13.7